createdAt,value
2018-10-19T00:00:24.115Z,10.49
2018-10-19T00:02:53.487Z,10.52
2018-10-19T00:05:23.017Z,10.66
2018-10-19T00:07:52.454Z,10.54
2018-10-19T00:10:22.252Z,10.64
2018-10-19T00:12:51.927Z,10.52
2018-10-19T00:15:21.406Z,10.46
2018-10-19T00:17:50.964Z,10.41
2018-10-19T00:20:20.548Z,10.45
2018-10-19T00:22:49.912Z,10.33
2018-10-19T00:25:19.232Z,10.29
2018-10-19T00:27:48.638Z,10.40
2018-10-19T00:30:18.035Z,10.39
2018-10-19T00:32:47.410Z,10.31
2018-10-19T00:35:16.814Z,10.34
2018-10-19T00:37:46.052Z,10.31
2018-10-19T00:40:15.398Z,10.13
2018-10-19T00:42:44.698Z,10.12
2018-10-19T00:45:14.136Z,10.10
2018-10-19T00:47:43.445Z,9.97
2018-10-19T00:50:12.839Z,10.00
2018-10-19T00:52:42.316Z,9.93
2018-10-19T00:55:11.760Z,9.92
2018-10-19T00:57:41.213Z,10.05
2018-10-19T01:00:10.471Z,9.93
2018-10-19T01:02:40.292Z,9.81
2018-10-19T01:05:09.557Z,9.73
2018-10-19T01:07:38.797Z,9.71
2018-10-19T01:10:08.081Z,9.70
2018-10-19T01:12:37.524Z,9.61
2018-10-19T01:15:07.046Z,9.70
2018-10-19T01:17:36.439Z,9.62
2018-10-19T01:20:05.969Z,9.62
2018-10-19T01:22:35.428Z,9.46
2018-10-19T01:25:05.011Z,9.29
2018-10-19T01:27:34.762Z,9.32
2018-10-19T01:30:04.429Z,9.26
2018-10-19T01:32:33.918Z,9.30
2018-10-19T01:35:03.667Z,9.29
2018-10-19T01:37:33.109Z,9.30
2018-10-19T01:40:02.400Z,9.27
2018-10-19T01:42:31.683Z,9.23
2018-10-19T01:45:01.258Z,9.20
2018-10-19T01:47:30.709Z,9.13
2018-10-19T01:50:00.705Z,8.95
2018-10-19T01:52:30.035Z,9.02
2018-10-19T01:54:59.389Z,9.16
2018-10-19T01:57:28.772Z,9.18
2018-10-19T01:59:58.302Z,9.09
2018-10-19T02:02:27.808Z,8.86
2018-10-19T02:04:57.195Z,8.85
2018-10-19T02:07:26.594Z,8.95
2018-10-19T02:09:55.936Z,8.97
2018-10-19T02:12:25.282Z,8.91
2018-10-19T02:14:54.536Z,8.81
2018-10-19T02:17:23.919Z,8.75
2018-10-19T02:19:53.264Z,8.77
2018-10-19T02:22:22.814Z,8.79
2018-10-19T02:24:52.176Z,8.81
2018-10-19T02:27:21.506Z,8.89
2018-10-19T02:29:50.764Z,8.68
2018-10-19T02:32:20.158Z,8.63
2018-10-19T02:34:49.585Z,8.67
2018-10-19T02:37:19.162Z,8.64
2018-10-19T02:39:48.664Z,8.58
2018-10-19T02:42:18.360Z,8.53
2018-10-19T02:44:48.353Z,8.60
2018-10-19T02:47:17.691Z,8.54
2018-10-19T02:49:46.912Z,8.57
2018-10-19T02:52:16.255Z,8.32
2018-10-19T02:54:45.705Z,8.44
2018-10-19T02:57:15.201Z,8.47
2018-10-19T02:59:44.532Z,8.50
2018-10-19T03:02:13.770Z,8.50
2018-10-19T03:04:43.345Z,8.32
2018-10-19T03:07:12.766Z,8.34
2018-10-19T03:09:42.150Z,8.37
2018-10-19T03:12:11.320Z,8.37
2018-10-19T03:14:40.586Z,8.34
2018-10-19T03:17:10.162Z,8.29
2018-10-19T03:19:39.559Z,8.25
2018-10-19T03:22:08.956Z,8.20
2018-10-19T03:24:38.204Z,8.22
2018-10-19T03:27:08.418Z,8.17
2018-10-19T03:29:37.779Z,8.07
2018-10-19T03:32:07.263Z,7.99
2018-10-19T03:34:36.507Z,7.93
2018-10-19T03:37:06.177Z,7.92
2018-10-19T03:39:35.643Z,7.78
2018-10-19T03:42:04.865Z,7.63
2018-10-19T03:44:34.211Z,7.80
2018-10-19T03:47:03.744Z,7.82
2018-10-19T03:49:33.061Z,7.90
2018-10-19T03:52:02.607Z,7.90
2018-10-19T03:54:32.213Z,7.92
2018-10-19T03:57:01.788Z,7.89
2018-10-19T03:59:31.116Z,7.95
2018-10-19T04:02:00.505Z,7.89
2018-10-19T04:04:29.897Z,7.71
2018-10-19T04:06:59.227Z,7.84
2018-10-19T04:09:28.656Z,7.83
2018-10-19T04:11:58.076Z,7.76
2018-10-19T04:14:27.332Z,7.69
2018-10-19T04:16:56.868Z,7.78
2018-10-19T04:19:26.296Z,7.83
2018-10-19T04:21:55.783Z,7.77
2018-10-19T04:24:25.041Z,7.67
2018-10-19T04:26:55.421Z,7.74
2018-10-19T04:29:24.811Z,7.59
2018-10-19T04:31:54.263Z,7.58
2018-10-19T04:34:23.717Z,7.47
2018-10-19T04:36:57.560Z,7.52
2018-10-19T04:39:26.901Z,7.48
2018-10-19T04:41:56.269Z,7.43
2018-10-19T04:44:25.907Z,7.41
2018-10-19T04:46:55.730Z,7.46
2018-10-19T04:49:25.442Z,7.49
2018-10-19T04:51:54.813Z,7.55
2018-10-19T04:54:24.355Z,7.54
2018-10-19T04:56:53.784Z,7.34
2018-10-19T04:59:23.176Z,7.21
2018-10-19T05:01:52.542Z,7.12
2018-10-19T05:04:22.001Z,7.02
2018-10-19T05:06:51.318Z,7.21
2018-10-19T05:09:20.704Z,7.21
2018-10-19T05:11:50.010Z,7.04
2018-10-19T05:14:20.318Z,7.09
2018-10-19T05:16:49.573Z,7.04
2018-10-19T05:19:18.802Z,7.08
2018-10-19T05:21:48.121Z,7.07
2018-10-19T05:24:17.424Z,7.07
2018-10-19T05:26:46.649Z,7.07
2018-10-19T05:29:16.053Z,7.07
2018-10-19T05:31:46.226Z,7.09
2018-10-19T05:34:15.656Z,7.13
2018-10-19T05:36:45.030Z,7.22
2018-10-19T05:39:14.323Z,7.26
2018-10-19T05:41:43.699Z,7.20
2018-10-19T05:44:13.225Z,7.17
2018-10-19T05:46:42.517Z,7.24
2018-10-19T05:49:12.075Z,7.31
2018-10-19T05:51:41.470Z,7.38
2018-10-19T05:54:10.753Z,7.41
2018-10-19T05:56:40.091Z,7.36
2018-10-19T05:59:09.474Z,7.38
2018-10-19T06:01:38.971Z,7.39
2018-10-19T06:04:08.567Z,7.34
2018-10-19T06:06:37.972Z,7.38
2018-10-19T06:09:09.624Z,7.39
2018-10-19T06:11:39.029Z,7.39
2018-10-19T06:14:08.844Z,7.54
2018-10-19T06:16:38.384Z,7.55
2018-10-19T06:19:09.424Z,7.54
2018-10-19T06:21:38.732Z,7.60
2018-10-19T06:24:08.964Z,7.69
2018-10-19T06:26:38.699Z,7.69
2018-10-19T06:29:08.161Z,7.75
2018-10-19T06:31:37.470Z,7.90
2018-10-19T06:34:06.755Z,7.85
2018-10-19T06:36:36.114Z,7.86
2018-10-19T06:39:07.062Z,7.98
2018-10-19T06:41:36.488Z,8.13
2018-10-19T06:44:06.200Z,8.27
2018-10-19T06:46:35.738Z,8.37
2018-10-19T06:49:05.093Z,8.41
2018-10-19T06:51:34.684Z,8.40
2018-10-19T06:54:04.269Z,8.60
2018-10-19T06:56:33.623Z,8.60
2018-10-19T06:59:03.215Z,8.64
2018-10-19T07:01:32.714Z,8.73
2018-10-19T07:04:02.257Z,8.77
2018-10-19T07:06:31.754Z,8.75
2018-10-19T07:09:01.886Z,8.68
2018-10-19T07:11:31.318Z,8.58
2018-10-19T07:14:00.688Z,8.44
2018-10-19T07:16:30.037Z,8.56
2018-10-19T07:18:59.490Z,8.67
2018-10-19T07:21:28.847Z,8.81
2018-10-19T07:23:58.170Z,8.84
2018-10-19T07:26:27.541Z,8.89
2018-10-19T07:28:57.041Z,8.85
2018-10-19T07:31:26.405Z,9.05
2018-10-19T07:33:55.879Z,9.15
2018-10-19T07:36:25.899Z,9.37
2018-10-19T07:38:55.246Z,9.57
2018-10-19T07:41:24.545Z,9.67
2018-10-19T07:43:53.899Z,9.73
2018-10-19T07:46:23.201Z,9.83
2018-10-19T07:48:52.530Z,10.05
2018-10-19T07:51:22.127Z,9.94
2018-10-19T07:53:51.259Z,10.22
2018-10-19T07:56:20.755Z,10.30
2018-10-19T07:58:50.136Z,10.73
2018-10-19T08:01:19.397Z,11.21
2018-10-19T08:03:48.748Z,11.52
2018-10-19T08:06:17.992Z,11.96
2018-10-19T08:08:47.385Z,12.03
2018-10-19T08:11:16.710Z,12.10
2018-10-19T08:13:46.097Z,12.38
2018-10-19T08:16:15.626Z,12.62
2018-10-19T08:18:45.277Z,12.29
2018-10-19T08:21:14.821Z,12.92
2018-10-19T08:23:44.221Z,13.19
2018-10-19T08:26:13.689Z,12.45
2018-10-19T08:28:43.148Z,12.58
2018-10-19T08:31:13.732Z,13.18
2018-10-19T08:33:42.932Z,12.82
2018-10-19T08:36:12.514Z,13.40
2018-10-19T08:38:41.942Z,14.06
2018-10-19T08:41:11.496Z,14.26
2018-10-19T08:43:40.812Z,13.59
2018-10-19T08:46:15.223Z,14.37
2018-10-19T08:48:44.561Z,14.49
2018-10-19T08:51:13.907Z,14.85
2018-10-19T08:53:43.078Z,14.85
2018-10-19T08:56:12.416Z,14.81
2018-10-19T08:58:41.710Z,14.81
2018-10-19T09:01:11.083Z,15.40
2018-10-19T09:03:40.397Z,15.18
2018-10-19T09:06:09.878Z,15.72
2018-10-19T09:08:39.456Z,16.52
2018-10-19T09:11:08.818Z,15.25
2018-10-19T09:13:38.769Z,15.47
2018-10-19T09:16:08.118Z,15.78
2018-10-19T09:18:37.356Z,16.44
2018-10-19T09:21:06.876Z,16.61
2018-10-19T09:23:36.441Z,16.94
2018-10-19T09:26:06.102Z,16.28
2018-10-19T09:28:35.390Z,16.55
2018-10-19T09:31:04.666Z,16.57
2018-10-19T09:33:34.227Z,16.82
2018-10-19T09:36:03.721Z,16.07
2018-10-19T09:38:33.431Z,16.32
2018-10-19T09:41:02.930Z,17.21
2018-10-19T09:43:32.168Z,17.42
2018-10-19T09:46:01.417Z,17.42
2018-10-19T09:48:30.905Z,17.12
2018-10-19T09:51:00.516Z,18.19
2018-10-19T09:53:29.977Z,17.47
2018-10-19T09:55:59.480Z,17.74
2018-10-19T09:58:28.871Z,17.87
2018-10-19T10:00:58.912Z,17.80
2018-10-19T10:03:29.209Z,18.00
2018-10-19T10:05:59.016Z,18.08
2018-10-19T10:08:28.579Z,18.66
2018-10-19T10:10:58.187Z,18.57
2018-10-19T10:13:27.663Z,18.07
2018-10-19T10:15:56.969Z,18.72
2018-10-19T10:18:27.419Z,18.83
2018-10-19T10:20:56.694Z,19.21
2018-10-19T10:23:26.147Z,18.81
2018-10-19T10:25:55.749Z,18.73
2018-10-19T10:28:25.107Z,18.25
2018-10-19T10:30:54.454Z,18.93
2018-10-19T10:33:23.892Z,18.58
2018-10-19T10:35:53.286Z,18.70
2018-10-19T10:38:22.762Z,19.38
2018-10-19T10:40:52.231Z,19.88
2018-10-19T10:43:21.597Z,20.21
2018-10-19T10:45:51.054Z,19.79
2018-10-19T10:48:21.821Z,20.25
2018-10-19T10:50:51.274Z,20.07
2018-10-19T10:53:20.860Z,20.48
2018-10-19T10:55:50.355Z,19.67
2018-10-19T10:58:19.755Z,20.61
2018-10-19T11:00:49.090Z,20.10
2018-10-19T11:03:18.510Z,20.09
2018-10-19T11:05:47.801Z,19.55
2018-10-19T11:08:17.226Z,19.56
2018-10-19T11:10:46.567Z,20.35
2018-10-19T11:13:16.372Z,20.71
2018-10-19T11:15:45.575Z,19.97
2018-10-19T11:18:14.878Z,20.22
2018-10-19T11:20:44.183Z,20.23
2018-10-19T11:23:14.007Z,20.33
2018-10-19T11:25:43.573Z,19.96
2018-10-19T11:28:13.399Z,20.81
2018-10-19T11:30:42.708Z,19.90
2018-10-19T11:33:12.160Z,20.04
2018-10-19T11:35:41.640Z,20.05
2018-10-19T11:38:11.036Z,20.23
2018-10-19T11:40:40.553Z,19.93
2018-10-19T11:43:10.056Z,20.36
2018-10-19T11:45:40.211Z,20.20
2018-10-19T11:48:09.650Z,20.58
2018-10-19T11:50:39.077Z,20.36
2018-10-19T11:53:08.594Z,20.44
2018-10-19T11:55:37.886Z,20.53
2018-10-19T11:58:07.358Z,20.83
2018-10-19T12:00:37.087Z,20.20
2018-10-19T12:03:06.374Z,20.73
2018-10-19T12:05:35.813Z,21.04
2018-10-19T12:08:05.390Z,20.42
2018-10-19T12:10:35.360Z,20.50
2018-10-19T12:13:04.661Z,20.62
2018-10-19T12:15:34.725Z,20.61
2018-10-19T12:18:03.842Z,21.05
2018-10-19T12:20:32.867Z,19.81
2018-10-19T12:23:01.982Z,20.31
2018-10-19T12:25:31.402Z,20.13
2018-10-19T12:28:00.462Z,20.69
2018-10-19T12:30:29.480Z,20.30
2018-10-19T12:32:58.961Z,20.12
2018-10-19T12:35:29.074Z,19.87
2018-10-19T12:37:58.201Z,19.52
2018-10-19T12:40:27.552Z,19.74
2018-10-19T12:42:56.866Z,19.88
2018-10-19T12:46:37.472Z,20.14
2018-10-19T12:49:07.240Z,19.79
2018-10-19T12:51:36.527Z,20.23
2018-10-19T12:54:06.267Z,19.75
2018-10-19T12:56:35.656Z,20.13
2018-10-19T12:59:05.407Z,20.27
2018-10-19T13:01:36.039Z,20.28
2018-10-19T13:04:05.863Z,20.76
2018-10-19T13:06:35.249Z,20.70
2018-10-19T13:09:07.267Z,20.39
2018-10-19T13:11:36.749Z,20.42
2018-10-19T13:14:06.611Z,20.43
2018-10-19T13:16:35.962Z,20.10
2018-10-19T13:19:05.632Z,20.22
2018-10-19T13:21:35.287Z,20.29
2018-10-19T13:24:04.978Z,20.55
2018-10-19T13:26:34.578Z,20.04
2018-10-19T13:29:04.278Z,19.94
2018-10-19T13:31:33.735Z,19.83
2018-10-19T13:34:03.346Z,19.87
2018-10-19T13:36:32.681Z,19.95
2018-10-19T13:39:02.119Z,20.09
2018-10-19T13:41:31.599Z,20.23
2018-10-19T13:44:01.879Z,20.22
2018-10-19T13:46:32.098Z,20.08
2018-10-19T13:49:02.123Z,20.03
2018-10-19T13:51:32.445Z,19.98
2018-10-19T13:54:02.038Z,19.75
2018-10-19T13:56:31.622Z,19.96
2018-10-19T13:59:01.059Z,19.88
2018-10-19T14:01:30.434Z,19.34
2018-10-19T14:04:00.668Z,19.55
2018-10-19T14:06:31.019Z,19.35
2018-10-19T14:09:00.393Z,19.46
2018-10-19T14:11:29.667Z,19.63
2018-10-19T14:14:00.112Z,19.69
2018-10-19T14:16:29.397Z,19.30
2018-10-19T14:18:58.723Z,19.43
2018-10-19T14:21:28.071Z,19.52
2018-10-19T14:23:57.403Z,19.39
2018-10-19T14:26:26.836Z,19.35
2018-10-19T14:28:56.323Z,19.36
2018-10-19T14:31:26.523Z,19.15
2018-10-19T14:33:55.902Z,19.09
2018-10-19T14:36:25.445Z,19.28
2018-10-19T14:38:55.479Z,18.92
2018-10-19T14:41:25.048Z,18.97
2018-10-19T14:43:54.784Z,18.96
2018-10-19T14:46:24.197Z,18.87
2018-10-19T14:48:54.993Z,18.60
2018-10-19T14:51:25.112Z,18.70
2018-10-19T14:53:54.565Z,18.56
2018-10-19T14:56:24.065Z,18.36
2018-10-19T14:58:53.393Z,18.28
2018-10-19T15:01:23.153Z,18.12
2018-10-19T15:03:52.835Z,17.96
2018-10-19T15:06:21.992Z,17.92
2018-10-19T15:08:51.608Z,17.92
2018-10-19T15:11:21.181Z,17.93
2018-10-19T15:13:50.327Z,17.86
2018-10-19T15:16:19.636Z,17.61
2018-10-19T15:18:49.267Z,17.76
2018-10-19T15:21:19.023Z,17.53
2018-10-19T15:23:48.417Z,17.51
2018-10-19T15:26:17.831Z,17.20
2018-10-19T15:28:48.161Z,17.28
2018-10-19T15:31:17.855Z,16.89
2018-10-19T15:33:47.279Z,16.53
2018-10-19T15:36:16.727Z,16.47
2018-10-19T15:38:46.665Z,16.44
2018-10-19T15:41:16.025Z,15.93
2018-10-19T15:43:46.895Z,15.87
2018-10-19T15:46:16.400Z,15.83
2018-10-19T15:48:45.816Z,15.73
2018-10-19T15:51:16.368Z,15.56
2018-10-19T15:53:46.995Z,15.43
2018-10-19T15:56:18.097Z,15.39
2018-10-19T15:58:47.612Z,15.35
2018-10-19T16:01:17.410Z,15.11
2018-10-19T16:03:46.846Z,14.98
2018-10-19T16:06:17.006Z,14.85
2018-10-19T16:08:46.061Z,14.67
2018-10-19T16:11:15.304Z,14.73
2018-10-19T16:13:44.456Z,14.80
2018-10-19T16:16:13.557Z,14.67
2018-10-19T16:18:42.636Z,14.50
2018-10-19T16:21:11.896Z,14.10
2018-10-19T16:23:40.959Z,13.97
2018-10-19T16:26:11.996Z,14.03
2018-10-19T16:28:41.602Z,13.92
2018-10-19T16:31:11.111Z,13.76
2018-10-19T16:33:40.484Z,13.79
2018-10-19T16:36:09.995Z,13.85
2018-10-19T16:38:39.452Z,13.95
2018-10-19T16:41:08.824Z,14.00
2018-10-19T16:43:38.357Z,13.54
2018-10-19T16:46:08.124Z,13.39
2018-10-19T16:48:38.536Z,13.64
2018-10-19T16:51:08.693Z,13.27
2018-10-19T16:53:38.116Z,13.14
2018-10-19T16:56:07.487Z,12.91
2018-10-19T16:58:36.989Z,12.99
2018-10-19T17:01:06.649Z,12.80
2018-10-19T17:03:36.019Z,12.80
2018-10-19T17:06:06.128Z,12.82
2018-10-19T17:08:35.629Z,12.79
2018-10-19T17:11:05.291Z,12.75
2018-10-19T17:13:34.883Z,12.57
2018-10-19T17:16:04.492Z,12.55
2018-10-19T17:18:34.185Z,12.23
2018-10-19T17:21:03.928Z,12.08
2018-10-19T17:23:37.072Z,12.09
2018-10-19T17:26:06.993Z,12.32
2018-10-19T17:28:37.789Z,12.35
2018-10-19T17:31:07.890Z,12.15
2018-10-19T17:33:37.394Z,12.08
2018-10-19T17:36:08.179Z,12.12
2018-10-19T17:38:37.844Z,12.09
2018-10-19T17:41:07.298Z,11.97
2018-10-19T17:43:37.928Z,12.04
2018-10-19T17:46:07.366Z,11.99
2018-10-19T17:48:37.461Z,11.85
2018-10-19T17:51:08.125Z,11.65
2018-10-19T17:53:38.878Z,11.93
2018-10-19T17:56:08.700Z,11.94
2018-10-19T17:58:41.666Z,11.79
2018-10-19T18:01:12.283Z,11.73
2018-10-19T18:03:42.634Z,11.48
2018-10-19T18:06:14.000Z,11.49
2018-10-19T18:08:44.728Z,11.34
2018-10-19T18:11:17.225Z,11.40
2018-10-19T18:13:47.047Z,11.31
2018-10-19T18:16:18.722Z,11.31
2018-10-19T18:18:49.235Z,11.38
2018-10-19T18:21:19.292Z,11.44
2018-10-19T18:23:49.048Z,11.31
2018-10-19T18:26:19.692Z,11.21
2018-10-19T18:28:50.718Z,11.12
2018-10-19T18:31:21.524Z,11.09
2018-10-19T18:33:53.356Z,11.11
2018-10-19T18:36:24.244Z,11.25
2018-10-19T18:38:54.162Z,11.24
2018-10-19T18:41:24.337Z,10.98
2018-10-19T18:43:55.256Z,10.91
2018-10-19T18:46:24.907Z,10.85
2018-10-19T18:48:55.548Z,10.79
2018-10-19T18:51:25.161Z,10.75
2018-10-19T18:53:54.775Z,10.65
2018-10-19T18:56:25.868Z,10.67
2018-10-19T18:58:56.573Z,10.80
2018-10-19T19:01:26.299Z,10.46
2018-10-19T19:03:55.867Z,10.58
2018-10-19T19:06:25.711Z,10.56
2018-10-19T19:08:55.086Z,10.53
2018-10-19T19:11:24.511Z,10.46
2018-10-19T19:13:54.666Z,10.21
2018-10-19T19:16:28.488Z,10.25
2018-10-19T19:18:57.905Z,10.17
2018-10-19T19:21:27.586Z,10.29
2018-10-19T19:24:02.151Z,10.16
2018-10-19T19:26:33.459Z,10.14
2018-10-19T19:29:03.173Z,10.07
2018-10-19T19:31:33.184Z,9.99
2018-10-19T19:34:07.668Z,9.85
2018-10-19T19:36:37.140Z,9.90
2018-10-19T19:39:09.468Z,10.01
2018-10-19T19:41:44.047Z,9.87
2018-10-19T19:44:15.155Z,9.73
2018-10-19T19:46:46.514Z,9.32
2018-10-19T19:49:21.377Z,9.62
2018-10-19T19:51:51.870Z,9.70
2018-10-19T19:54:21.329Z,9.78
2018-10-19T19:56:51.760Z,9.80
2018-10-19T19:59:25.355Z,9.60
2018-10-19T20:01:56.675Z,9.63
2018-10-19T20:04:26.357Z,9.57
2018-10-19T20:06:57.056Z,9.50
2018-10-19T20:09:30.533Z,9.41
2018-10-19T20:12:01.511Z,9.33
2018-10-19T20:14:31.375Z,9.14
2018-10-19T20:17:00.856Z,9.27
2018-10-19T20:19:31.389Z,8.92
2018-10-19T20:22:01.135Z,9.01
2018-10-19T20:24:31.552Z,9.19
2018-10-19T20:27:01.050Z,9.16
2018-10-19T20:29:32.276Z,9.07
2018-10-19T20:32:01.798Z,9.11
2018-10-19T20:34:32.067Z,9.20
2018-10-19T20:37:01.644Z,9.27
2018-10-19T20:39:31.982Z,9.09
2018-10-19T20:42:01.555Z,8.68
2018-10-19T20:44:30.955Z,8.68
2018-10-19T20:47:00.329Z,8.74
2018-10-19T20:49:30.407Z,8.92
2018-10-19T20:51:59.825Z,8.99
2018-10-19T20:54:29.370Z,8.95
2018-10-19T20:56:59.644Z,8.42
2018-10-19T20:59:29.459Z,8.47
2018-10-19T21:01:58.927Z,8.53
2018-10-19T21:04:28.333Z,8.54
2018-10-19T21:06:58.392Z,8.49
2018-10-19T21:09:27.780Z,8.40
2018-10-19T21:11:57.852Z,8.39
2018-10-19T21:14:27.324Z,8.29
2018-10-19T21:16:56.939Z,8.21
2018-10-19T21:19:26.493Z,8.16
2018-10-19T21:21:55.911Z,8.13
2018-10-19T21:24:25.466Z,8.03
2018-10-19T21:26:55.336Z,8.12
2018-10-19T21:29:32.047Z,8.13
2018-10-19T21:32:01.394Z,8.22
2018-10-19T21:34:30.819Z,8.25
2018-10-19T21:37:00.197Z,8.18
2018-10-19T21:39:29.729Z,8.13
2018-10-19T21:41:59.135Z,8.15
2018-10-19T21:44:28.538Z,8.12
2018-10-19T21:46:58.003Z,8.00
2018-10-19T21:49:27.414Z,7.85
2018-10-19T21:51:56.723Z,7.99
2018-10-19T21:54:26.060Z,8.09
2018-10-19T21:56:55.502Z,8.10
2018-10-19T21:59:24.980Z,8.08
2018-10-19T22:01:54.430Z,7.90
2018-10-19T22:04:23.875Z,7.82
2018-10-19T22:06:53.244Z,7.79
2018-10-19T22:09:22.644Z,7.97
2018-10-19T22:11:51.988Z,7.74
2018-10-19T22:14:21.530Z,7.85
2018-10-19T22:16:51.049Z,7.82
2018-10-19T22:19:20.400Z,7.61
2018-10-19T22:21:49.921Z,7.75
2018-10-19T22:24:19.302Z,7.80
2018-10-19T22:26:48.688Z,7.72
2018-10-19T22:29:18.146Z,7.51
2018-10-19T22:31:47.631Z,7.46
2018-10-19T22:34:17.176Z,7.42
2018-10-19T22:36:46.615Z,7.60
2018-10-19T22:39:16.352Z,7.55
2018-10-19T22:41:45.759Z,7.45
2018-10-19T22:44:15.553Z,7.39
2018-10-19T22:46:44.899Z,7.32
2018-10-19T22:49:14.091Z,7.38
2018-10-19T22:51:43.503Z,7.34
2018-10-19T22:54:12.928Z,7.30
2018-10-19T22:56:42.574Z,7.20
2018-10-19T22:59:12.038Z,7.34
2018-10-19T23:01:41.452Z,7.22
2018-10-19T23:04:10.857Z,7.19
2018-10-19T23:06:40.323Z,7.05
2018-10-19T23:09:10.201Z,7.04
2018-10-19T23:11:39.670Z,7.04
2018-10-19T23:14:09.116Z,7.05
2018-10-19T23:16:38.863Z,7.36
2018-10-19T23:19:08.704Z,6.97
2018-10-19T23:21:38.151Z,6.93
2018-10-19T23:24:08.172Z,7.06
2018-10-19T23:26:37.740Z,6.95
2018-10-19T23:29:07.316Z,7.02
2018-10-19T23:31:36.854Z,6.89
2018-10-19T23:34:06.973Z,6.83
2018-10-19T23:36:36.677Z,6.88
2018-10-19T23:39:09.402Z,6.97
2018-10-19T23:41:39.013Z,6.71
2018-10-19T23:44:08.490Z,6.79
2018-10-19T23:46:38.227Z,6.69
2018-10-19T23:49:08.082Z,6.72
2018-10-19T23:51:37.686Z,6.84
2018-10-19T23:54:07.011Z,6.69
2018-10-19T23:56:36.393Z,6.70
2018-10-19T23:59:06.206Z,6.66
